sensor_id;sensor_type;location;lat;lon;timestamp;pressure;altitude;pressure_sealevel;temperature
15626;BMP180;7912;51.376;6.126;2023-04-24T00:01:31;99753.00;;;14.50
15626;BMP180;7912;51.376;6.126;2023-04-24T00:03:58;99743.00;;;14.50
15626;BMP180;7912;51.376;6.126;2023-04-24T00:06:26;99746.00;;;14.50
15626;BMP180;7912;51.376;6.126;2023-04-24T00:09:00;99750.00;;;14.50
15626;BMP180;7912;51.376;6.126;2023-04-24T00:11:29;99743.00;;;14.50
15626;BMP180;7912;51.376;6.126;2023-04-24T00:13:57;99752.00;;;14.50
15626;BMP180;7912;51.376;6.126;2023-04-24T00:16:24;99750.00;;;14.50
15626;BMP180;7912;51.376;6.126;2023-04-24T00:18:52;99758.00;;;14.50
15626;BMP180;7912;51.376;6.126;2023-04-24T00:21:23;99761.00;;;14.50
15626;BMP180;7912;51.376;6.126;2023-04-24T00:23:53;99763.00;;;14.50
15626;BMP180;7912;51.376;6.126;2023-04-24T00:26:20;99758.00;;;14.50
15626;BMP180;7912;51.376;6.126;2023-04-24T00:28:48;99763.00;;;14.50
15626;BMP180;7912;51.376;6.126;2023-04-24T00:31:18;99750.00;;;14.50
15626;BMP180;7912;51.376;6.126;2023-04-24T00:33:46;99759.00;;;14.50
15626;BMP180;7912;51.376;6.126;2023-04-24T00:36:13;99768.00;;;14.50
15626;BMP180;7912;51.376;6.126;2023-04-24T00:38:40;99774.00;;;14.50
15626;BMP180;7912;51.376;6.126;2023-04-24T00:41:07;99768.00;;;14.40
15626;BMP180;7912;51.376;6.126;2023-04-24T00:43:35;99759.00;;;14.40
15626;BMP180;7912;51.376;6.126;2023-04-24T00:46:02;99768.00;;;14.30
15626;BMP180;7912;51.376;6.126;2023-04-24T00:48:31;99763.00;;;14.30
15626;BMP180;7912;51.376;6.126;2023-04-24T00:50:59;99749.00;;;14.30
15626;BMP180;7912;51.376;6.126;2023-04-24T00:53:26;99758.00;;;14.30
15626;BMP180;7912;51.376;6.126;2023-04-24T00:55:53;99740.00;;;14.20
15626;BMP180;7912;51.376;6.126;2023-04-24T00:58:21;99760.00;;;14.20
15626;BMP180;7912;51.376;6.126;2023-04-24T01:00:50;99750.00;;;14.20
15626;BMP180;7912;51.376;6.126;2023-04-24T01:03:24;99759.00;;;14.20
15626;BMP180;7912;51.376;6.126;2023-04-24T01:05:57;99754.00;;;14.20
15626;BMP180;7912;51.376;6.126;2023-04-24T01:08:28;99756.00;;;14.10
15626;BMP180;7912;51.376;6.126;2023-04-24T01:10:56;99755.00;;;14.10
15626;BMP180;7912;51.376;6.126;2023-04-24T01:13:24;99757.00;;;14.10
15626;BMP180;7912;51.376;6.126;2023-04-24T01:15:51;99756.00;;;14.10
15626;BMP180;7912;51.376;6.126;2023-04-24T01:18:22;99767.00;;;14.10
15626;BMP180;7912;51.376;6.126;2023-04-24T01:20:53;99755.00;;;14.10
15626;BMP180;7912;51.376;6.126;2023-04-24T01:23:21;99754.00;;;14.10
15626;BMP180;7912;51.376;6.126;2023-04-24T01:25:49;99757.00;;;14.10
15626;BMP180;7912;51.376;6.126;2023-04-24T01:28:36;99758.00;;;14.10
15626;BMP180;7912;51.376;6.126;2023-04-24T01:31:04;99753.00;;;14.00
15626;BMP180;7912;51.376;6.126;2023-04-24T01:33:32;99750.00;;;14.00
15626;BMP180;7912;51.376;6.126;2023-04-24T01:36:00;99740.00;;;14.00
15626;BMP180;7912;51.376;6.126;2023-04-24T01:38:27;99755.00;;;14.00
15626;BMP180;7912;51.376;6.126;2023-04-24T01:40:55;99746.00;;;14.00
15626;BMP180;7912;51.376;6.126;2023-04-24T01:43:23;99762.00;;;14.10
15626;BMP180;7912;51.376;6.126;2023-04-24T01:45:51;99758.00;;;14.10
15626;BMP180;7912;51.376;6.126;2023-04-24T01:48:18;99759.00;;;14.10
15626;BMP180;7912;51.376;6.126;2023-04-24T01:50:46;99752.00;;;14.00
15626;BMP180;7912;51.376;6.126;2023-04-24T01:53:13;99743.00;;;14.00
15626;BMP180;7912;51.376;6.126;2023-04-24T01:55:41;99731.00;;;14.00
15626;BMP180;7912;51.376;6.126;2023-04-24T01:58:09;99749.00;;;13.90
15626;BMP180;7912;51.376;6.126;2023-04-24T02:00:36;99745.00;;;13.90
15626;BMP180;7912;51.376;6.126;2023-04-24T02:03:03;99742.00;;;13.90
15626;BMP180;7912;51.376;6.126;2023-04-24T02:05:31;99750.00;;;13.90
15626;BMP180;7912;51.376;6.126;2023-04-24T02:07:58;99747.00;;;13.90
15626;BMP180;7912;51.376;6.126;2023-04-24T02:10:26;99745.00;;;13.90
15626;BMP180;7912;51.376;6.126;2023-04-24T02:12:53;99747.00;;;13.90
15626;BMP180;7912;51.376;6.126;2023-04-24T02:15:21;99744.00;;;13.90
15626;BMP180;7912;51.376;6.126;2023-04-24T02:17:48;99734.00;;;13.90
15626;BMP180;7912;51.376;6.126;2023-04-24T02:20:15;99753.00;;;13.90
15626;BMP180;7912;51.376;6.126;2023-04-24T02:22:43;99759.00;;;13.90
15626;BMP180;7912;51.376;6.126;2023-04-24T02:25:10;99761.00;;;13.90
15626;BMP180;7912;51.376;6.126;2023-04-24T02:27:37;99739.00;;;13.90
15626;BMP180;7912;51.376;6.126;2023-04-24T02:30:05;99741.00;;;13.90
15626;BMP180;7912;51.376;6.126;2023-04-24T02:32:33;99754.00;;;13.90
15626;BMP180;7912;51.376;6.126;2023-04-24T02:35:38;99756.00;;;13.90
15626;BMP180;7912;51.376;6.126;2023-04-24T02:38:05;99746.00;;;13.90
15626;BMP180;7912;51.376;6.126;2023-04-24T02:40:33;99754.00;;;14.00
15626;BMP180;7912;51.376;6.126;2023-04-24T02:43:00;99751.00;;;14.00
15626;BMP180;7912;51.376;6.126;2023-04-24T02:45:27;99752.00;;;14.00
15626;BMP180;7912;51.376;6.126;2023-04-24T02:47:55;99759.00;;;14.00
15626;BMP180;7912;51.376;6.126;2023-04-24T02:50:22;99757.00;;;14.00
15626;BMP180;7912;51.376;6.126;2023-04-24T02:52:50;99747.00;;;14.00
15626;BMP180;7912;51.376;6.126;2023-04-24T02:55:17;99740.00;;;13.90
15626;BMP180;7912;51.376;6.126;2023-04-24T02:57:45;99743.00;;;13.90
15626;BMP180;7912;51.376;6.126;2023-04-24T03:00:13;99751.00;;;14.00
15626;BMP180;7912;51.376;6.126;2023-04-24T03:02:40;99751.00;;;14.00
15626;BMP180;7912;51.376;6.126;2023-04-24T03:05:08;99758.00;;;14.00
15626;BMP180;7912;51.376;6.126;2023-04-24T03:07:36;99755.00;;;14.00
15626;BMP180;7912;51.376;6.126;2023-04-24T03:10:05;99753.00;;;13.90
15626;BMP180;7912;51.376;6.126;2023-04-24T03:12:32;99758.00;;;13.90
15626;BMP180;7912;51.376;6.126;2023-04-24T03:15:00;99756.00;;;13.90
15626;BMP180;7912;51.376;6.126;2023-04-24T03:17:27;99761.00;;;14.00
15626;BMP180;7912;51.376;6.126;2023-04-24T03:19:57;99757.00;;;14.00
15626;BMP180;7912;51.376;6.126;2023-04-24T03:22:24;99753.00;;;14.00
15626;BMP180;7912;51.376;6.126;2023-04-24T03:24:52;99756.00;;;14.00
15626;BMP180;7912;51.376;6.126;2023-04-24T03:27:19;99773.00;;;14.00
15626;BMP180;7912;51.376;6.126;2023-04-24T03:29:46;99762.00;;;14.00
15626;BMP180;7912;51.376;6.126;2023-04-24T03:32:14;99769.00;;;14.00
15626;BMP180;7912;51.376;6.126;2023-04-24T03:34:41;99761.00;;;13.90
15626;BMP180;7912;51.376;6.126;2023-04-24T03:37:08;99760.00;;;13.90
15626;BMP180;7912;51.376;6.126;2023-04-24T03:39:36;99757.00;;;13.90
15626;BMP180;7912;51.376;6.126;2023-04-24T03:42:03;99748.00;;;13.90
15626;BMP180;7912;51.376;6.126;2023-04-24T03:44:31;99751.00;;;13.90
15626;BMP180;7912;51.376;6.126;2023-04-24T03:46:58;99764.00;;;13.90
15626;BMP180;7912;51.376;6.126;2023-04-24T03:49:26;99757.00;;;13.90
15626;BMP180;7912;51.376;6.126;2023-04-24T03:51:53;99769.00;;;13.80
15626;BMP180;7912;51.376;6.126;2023-04-24T03:54:21;99757.00;;;13.80
15626;BMP180;7912;51.376;6.126;2023-04-24T03:56:48;99761.00;;;13.80
15626;BMP180;7912;51.376;6.126;2023-04-24T03:59:16;99765.00;;;13.80
15626;BMP180;7912;51.376;6.126;2023-04-24T04:01:43;99770.00;;;13.80
15626;BMP180;7912;51.376;6.126;2023-04-24T04:04:10;99763.00;;;13.80
15626;BMP180;7912;51.376;6.126;2023-04-24T04:06:41;99774.00;;;13.80
15626;BMP180;7912;51.376;6.126;2023-04-24T04:09:10;99763.00;;;13.80
15626;BMP180;7912;51.376;6.126;2023-04-24T04:11:37;99779.00;;;13.80
15626;BMP180;7912;51.376;6.126;2023-04-24T04:14:05;99778.00;;;13.80
15626;BMP180;7912;51.376;6.126;2023-04-24T04:16:33;99765.00;;;13.80
15626;BMP180;7912;51.376;6.126;2023-04-24T04:19:00;99780.00;;;13.80
15626;BMP180;7912;51.376;6.126;2023-04-24T04:21:29;99761.00;;;13.80
15626;BMP180;7912;51.376;6.126;2023-04-24T04:23:58;99787.00;;;13.80
15626;BMP180;7912;51.376;6.126;2023-04-24T04:26:25;99783.00;;;13.70
15626;BMP180;7912;51.376;6.126;2023-04-24T04:28:53;99784.00;;;13.70
15626;BMP180;7912;51.376;6.126;2023-04-24T04:31:21;99785.00;;;13.60
15626;BMP180;7912;51.376;6.126;2023-04-24T04:33:48;99790.00;;;13.70
15626;BMP180;7912;51.376;6.126;2023-04-24T04:36:16;99788.00;;;13.70
15626;BMP180;7912;51.376;6.126;2023-04-24T04:38:44;99795.00;;;13.60
15626;BMP180;7912;51.376;6.126;2023-04-24T04:41:11;99782.00;;;13.60
15626;BMP180;7912;51.376;6.126;2023-04-24T04:43:39;99799.00;;;13.60
15626;BMP180;7912;51.376;6.126;2023-04-24T04:46:07;99785.00;;;13.60
15626;BMP180;7912;51.376;6.126;2023-04-24T04:48:35;99791.00;;;13.50
15626;BMP180;7912;51.376;6.126;2023-04-24T04:51:02;99798.00;;;13.50
15626;BMP180;7912;51.376;6.126;2023-04-24T04:53:30;99789.00;;;13.50
15626;BMP180;7912;51.376;6.126;2023-04-24T04:55:57;99788.00;;;13.50
15626;BMP180;7912;51.376;6.126;2023-04-24T04:58:25;99784.00;;;13.50
15626;BMP180;7912;51.376;6.126;2023-04-24T05:00:52;99779.00;;;13.50
15626;BMP180;7912;51.376;6.126;2023-04-24T05:03:22;99789.00;;;13.50
15626;BMP180;7912;51.376;6.126;2023-04-24T05:05:49;99794.00;;;13.50
15626;BMP180;7912;51.376;6.126;2023-04-24T05:08:16;99795.00;;;13.50
15626;BMP180;7912;51.376;6.126;2023-04-24T05:10:52;99798.00;;;13.50
15626;BMP180;7912;51.376;6.126;2023-04-24T05:13:20;99785.00;;;13.40
15626;BMP180;7912;51.376;6.126;2023-04-24T05:16:02;99794.00;;;13.40
15626;BMP180;7912;51.376;6.126;2023-04-24T05:18:29;99787.00;;;13.40
15626;BMP180;7912;51.376;6.126;2023-04-24T05:20:57;99796.00;;;13.40
15626;BMP180;7912;51.376;6.126;2023-04-24T05:23:24;99786.00;;;13.40
15626;BMP180;7912;51.376;6.126;2023-04-24T05:25:52;99801.00;;;13.30
15626;BMP180;7912;51.376;6.126;2023-04-24T05:28:19;99788.00;;;13.30
15626;BMP180;7912;51.376;6.126;2023-04-24T05:30:47;99794.00;;;13.30
15626;BMP180;7912;51.376;6.126;2023-04-24T05:33:15;99805.00;;;13.30
15626;BMP180;7912;51.376;6.126;2023-04-24T05:35:42;99798.00;;;13.30
15626;BMP180;7912;51.376;6.126;2023-04-24T05:38:14;99797.00;;;13.20
15626;BMP180;7912;51.376;6.126;2023-04-24T05:40:44;99810.00;;;13.20
15626;BMP180;7912;51.376;6.126;2023-04-24T05:51:32;99819.00;;;12.80
15626;BMP180;7912;51.376;6.126;2023-04-24T05:53:59;99812.00;;;12.80
15626;BMP180;7912;51.376;6.126;2023-04-24T05:56:29;99808.00;;;12.80
15626;BMP180;7912;51.376;6.126;2023-04-24T05:58:57;99798.00;;;12.80
15626;BMP180;7912;51.376;6.126;2023-04-24T06:01:43;99821.00;;;12.80
15626;BMP180;7912;51.376;6.126;2023-04-24T06:04:12;99821.00;;;12.80
15626;BMP180;7912;51.376;6.126;2023-04-24T06:10:57;99813.00;;;12.70
15626;BMP180;7912;51.376;6.126;2023-04-24T06:17:44;99820.00;;;12.70
15626;BMP180;7912;51.376;6.126;2023-04-24T06:20:11;99839.00;;;12.80
15626;BMP180;7912;51.376;6.126;2023-04-24T06:22:39;99832.00;;;12.80
15626;BMP180;7912;51.376;6.126;2023-04-24T06:25:07;99831.00;;;12.80
15626;BMP180;7912;51.376;6.126;2023-04-24T06:27:35;99837.00;;;12.80
15626;BMP180;7912;51.376;6.126;2023-04-24T06:30:03;99835.00;;;12.80
15626;BMP180;7912;51.376;6.126;2023-04-24T06:32:31;99834.00;;;12.70
15626;BMP180;7912;51.376;6.126;2023-04-24T06:34:59;99850.00;;;12.70
15626;BMP180;7912;51.376;6.126;2023-04-24T06:37:27;99837.00;;;12.70
15626;BMP180;7912;51.376;6.126;2023-04-24T06:39:56;99837.00;;;12.70
15626;BMP180;7912;51.376;6.126;2023-04-24T06:42:31;99837.00;;;12.70
15626;BMP180;7912;51.376;6.126;2023-04-24T06:45:08;99840.00;;;12.60
15626;BMP180;7912;51.376;6.126;2023-04-24T06:47:47;99853.00;;;12.60
15626;BMP180;7912;51.376;6.126;2023-04-24T06:50:58;99831.00;;;12.60
15626;BMP180;7912;51.376;6.126;2023-04-24T06:53:35;99839.00;;;12.50
15626;BMP180;7912;51.376;6.126;2023-04-24T06:59:30;99841.00;;;12.40
15626;BMP180;7912;51.376;6.126;2023-04-24T07:01:57;99848.00;;;12.40
15626;BMP180;7912;51.376;6.126;2023-04-24T07:04:33;99868.00;;;12.30
15626;BMP180;7912;51.376;6.126;2023-04-24T07:07:14;99853.00;;;12.30
15626;BMP180;7912;51.376;6.126;2023-04-24T07:09:47;99864.00;;;12.30
15626;BMP180;7912;51.376;6.126;2023-04-24T07:12:25;99879.00;;;12.30
15626;BMP180;7912;51.376;6.126;2023-04-24T07:15:48;99886.00;;;12.20
15626;BMP180;7912;51.376;6.126;2023-04-24T07:18:24;99886.00;;;12.20
15626;BMP180;7912;51.376;6.126;2023-04-24T07:21:05;99890.00;;;12.20
15626;BMP180;7912;51.376;6.126;2023-04-24T07:24:31;99894.00;;;12.20
15626;BMP180;7912;51.376;6.126;2023-04-24T07:27:10;99896.00;;;12.20
15626;BMP180;7912;51.376;6.126;2023-04-24T07:29:56;99898.00;;;12.20
15626;BMP180;7912;51.376;6.126;2023-04-24T07:32:27;99886.00;;;12.20
15626;BMP180;7912;51.376;6.126;2023-04-24T07:35:04;99904.00;;;12.30
15626;BMP180;7912;51.376;6.126;2023-04-24T07:37:40;99912.00;;;12.30
15626;BMP180;7912;51.376;6.126;2023-04-24T07:40:18;99909.00;;;12.40
15626;BMP180;7912;51.376;6.126;2023-04-24T07:42:56;99928.00;;;12.40
15626;BMP180;7912;51.376;6.126;2023-04-24T07:45:34;99911.00;;;12.50
15626;BMP180;7912;51.376;6.126;2023-04-24T07:48:12;99919.00;;;12.50
15626;BMP180;7912;51.376;6.126;2023-04-24T07:50:57;99942.00;;;12.60
15626;BMP180;7912;51.376;6.126;2023-04-24T07:53:42;99942.00;;;12.70
15626;BMP180;7912;51.376;6.126;2023-04-24T07:56:25;99948.00;;;12.70
15626;BMP180;7912;51.376;6.126;2023-04-24T07:58:59;99949.00;;;12.70
15626;BMP180;7912;51.376;6.126;2023-04-24T08:02:01;99957.00;;;12.70
15626;BMP180;7912;51.376;6.126;2023-04-24T08:04:43;99964.00;;;12.60
15626;BMP180;7912;51.376;6.126;2023-04-24T08:07:15;99978.00;;;12.60
15626;BMP180;7912;51.376;6.126;2023-04-24T08:09:56;99991.00;;;12.50
15626;BMP180;7912;51.376;6.126;2023-04-24T08:12:46;100013.00;;;12.50
15626;BMP180;7912;51.376;6.126;2023-04-24T08:15:28;100010.00;;;12.40
15626;BMP180;7912;51.376;6.126;2023-04-24T08:17:59;100018.00;;;12.40
15626;BMP180;7912;51.376;6.126;2023-04-24T08:20:27;100050.00;;;12.30
15626;BMP180;7912;51.376;6.126;2023-04-24T08:22:54;100054.00;;;12.30
15626;BMP180;7912;51.376;6.126;2023-04-24T08:25:22;100050.00;;;12.30
15626;BMP180;7912;51.376;6.126;2023-04-24T08:27:55;100080.00;;;12.20
15626;BMP180;7912;51.376;6.126;2023-04-24T08:30:25;100088.00;;;12.20
15626;BMP180;7912;51.376;6.126;2023-04-24T08:32:59;100092.00;;;12.20
15626;BMP180;7912;51.376;6.126;2023-04-24T08:35:27;100095.00;;;12.20
15626;BMP180;7912;51.376;6.126;2023-04-24T08:37:58;100096.00;;;12.20
15626;BMP180;7912;51.376;6.126;2023-04-24T08:40:34;100108.00;;;12.20
15626;BMP180;7912;51.376;6.126;2023-04-24T08:43:03;100114.00;;;12.20
15626;BMP180;7912;51.376;6.126;2023-04-24T08:45:34;100123.00;;;12.20
15626;BMP180;7912;51.376;6.126;2023-04-24T08:48:04;100117.00;;;12.20
15626;BMP180;7912;51.376;6.126;2023-04-24T08:50:53;100140.00;;;12.10
15626;BMP180;7912;51.376;6.126;2023-04-24T08:53:20;100142.00;;;12.10
15626;BMP180;7912;51.376;6.126;2023-04-24T08:55:54;100139.00;;;12.10
15626;BMP180;7912;51.376;6.126;2023-04-24T08:58:25;100151.00;;;12.10
15626;BMP180;7912;51.376;6.126;2023-04-24T09:01:00;100165.00;;;12.20
15626;BMP180;7912;51.376;6.126;2023-04-24T09:03:28;100171.00;;;12.10
15626;BMP180;7912;51.376;6.126;2023-04-24T09:06:00;100174.00;;;12.20
15626;BMP180;7912;51.376;6.126;2023-04-24T09:08:36;100172.00;;;12.20
15626;BMP180;7912;51.376;6.126;2023-04-24T09:11:10;100199.00;;;12.20
15626;BMP180;7912;51.376;6.126;2023-04-24T09:13:39;100182.00;;;12.20
15626;BMP180;7912;51.376;6.126;2023-04-24T09:16:09;100190.00;;;12.20
15626;BMP180;7912;51.376;6.126;2023-04-24T09:18:37;100199.00;;;12.20
15626;BMP180;7912;51.376;6.126;2023-04-24T09:21:08;100199.00;;;12.30
15626;BMP180;7912;51.376;6.126;2023-04-24T09:23:36;100206.00;;;12.30
15626;BMP180;7912;51.376;6.126;2023-04-24T09:26:04;100204.00;;;12.30
15626;BMP180;7912;51.376;6.126;2023-04-24T09:28:40;100205.00;;;12.30
15626;BMP180;7912;51.376;6.126;2023-04-24T09:31:17;100224.00;;;12.40
15626;BMP180;7912;51.376;6.126;2023-04-24T09:36:34;100229.00;;;12.60
15626;BMP180;7912;51.376;6.126;2023-04-24T09:39:10;100237.00;;;12.60
15626;BMP180;7912;51.376;6.126;2023-04-24T09:41:55;100238.00;;;12.60
15626;BMP180;7912;51.376;6.126;2023-04-24T09:44:28;100248.00;;;12.60
15626;BMP180;7912;51.376;6.126;2023-04-24T09:46:59;100248.00;;;12.60
15626;BMP180;7912;51.376;6.126;2023-04-24T09:49:31;100246.00;;;12.60
15626;BMP180;7912;51.376;6.126;2023-04-24T09:52:10;100250.00;;;12.60
15626;BMP180;7912;51.376;6.126;2023-04-24T09:54:40;100271.00;;;12.60
15626;BMP180;7912;51.376;6.126;2023-04-24T09:57:08;100270.00;;;12.70
15626;BMP180;7912;51.376;6.126;2023-04-24T09:59:45;100264.00;;;12.70
15626;BMP180;7912;51.376;6.126;2023-04-24T10:02:24;100263.00;;;12.70
15626;BMP180;7912;51.376;6.126;2023-04-24T10:04:57;100278.00;;;12.70
15626;BMP180;7912;51.376;6.126;2023-04-24T10:07:32;100274.00;;;12.70
15626;BMP180;7912;51.376;6.126;2023-04-24T10:10:00;100283.00;;;12.60
15626;BMP180;7912;51.376;6.126;2023-04-24T10:12:29;100287.00;;;12.60
15626;BMP180;7912;51.376;6.126;2023-04-24T10:14:58;100300.00;;;12.60
15626;BMP180;7912;51.376;6.126;2023-04-24T10:17:28;100297.00;;;12.60
15626;BMP180;7912;51.376;6.126;2023-04-24T10:19:57;100308.00;;;12.70
15626;BMP180;7912;51.376;6.126;2023-04-24T10:22:28;100288.00;;;12.90
15626;BMP180;7912;51.376;6.126;2023-04-24T10:24:58;100305.00;;;12.90
15626;BMP180;7912;51.376;6.126;2023-04-24T10:27:27;100287.00;;;13.20
15626;BMP180;7912;51.376;6.126;2023-04-24T10:29:55;100291.00;;;13.30
15626;BMP180;7912;51.376;6.126;2023-04-24T10:32:23;100293.00;;;13.50
15626;BMP180;7912;51.376;6.126;2023-04-24T10:35:12;100311.00;;;13.50
15626;BMP180;7912;51.376;6.126;2023-04-24T10:37:51;100309.00;;;13.60
15626;BMP180;7912;51.376;6.126;2023-04-24T10:40:32;100309.00;;;13.60
15626;BMP180;7912;51.376;6.126;2023-04-24T10:43:03;100338.00;;;13.60
15626;BMP180;7912;51.376;6.126;2023-04-24T10:49:45;100339.00;;;13.70
15626;BMP180;7912;51.376;6.126;2023-04-24T10:52:15;100342.00;;;13.80
15626;BMP180;7912;51.376;6.126;2023-04-24T10:54:47;100335.00;;;13.90
15626;BMP180;7912;51.376;6.126;2023-04-24T10:59:51;100319.00;;;14.40
15626;BMP180;7912;51.376;6.126;2023-04-24T11:02:38;100344.00;;;14.70
15626;BMP180;7912;51.376;6.126;2023-04-24T11:05:08;100342.00;;;14.90
15626;BMP180;7912;51.376;6.126;2023-04-24T11:08:13;100347.00;;;15.10
15626;BMP180;7912;51.376;6.126;2023-04-24T11:10:45;100339.00;;;15.20
15626;BMP180;7912;51.376;6.126;2023-04-24T11:17:42;100353.00;;;15.40
15626;BMP180;7912;51.376;6.126;2023-04-24T11:20:11;100357.00;;;15.50
15626;BMP180;7912;51.376;6.126;2023-04-24T11:22:55;100359.00;;;15.50
15626;BMP180;7912;51.376;6.126;2023-04-24T11:25:24;100368.00;;;15.50
15626;BMP180;7912;51.376;6.126;2023-04-24T11:28:04;100378.00;;;15.40
15626;BMP180;7912;51.376;6.126;2023-04-24T11:30:32;100378.00;;;15.20
15626;BMP180;7912;51.376;6.126;2023-04-24T11:33:07;100377.00;;;15.00
15626;BMP180;7912;51.376;6.126;2023-04-24T11:35:40;100395.00;;;14.80
15626;BMP180;7912;51.376;6.126;2023-04-24T11:38:07;100399.00;;;14.70
15626;BMP180;7912;51.376;6.126;2023-04-24T11:40:40;100392.00;;;14.60
15626;BMP180;7912;51.376;6.126;2023-04-24T11:43:09;100404.00;;;14.50
15626;BMP180;7912;51.376;6.126;2023-04-24T11:45:36;100397.00;;;14.50
15626;BMP180;7912;51.376;6.126;2023-04-24T11:48:04;100412.00;;;14.60
15626;BMP180;7912;51.376;6.126;2023-04-24T11:50:31;100410.00;;;14.70
15626;BMP180;7912;51.376;6.126;2023-04-24T11:52:59;100416.00;;;15.00
15626;BMP180;7912;51.376;6.126;2023-04-24T11:55:29;100423.00;;;15.00
15626;BMP180;7912;51.376;6.126;2023-04-24T11:57:59;100415.00;;;15.20
15626;BMP180;7912;51.376;6.126;2023-04-24T12:00:29;100428.00;;;15.20
15626;BMP180;7912;51.376;6.126;2023-04-24T12:03:12;100442.00;;;15.20
15626;BMP180;7912;51.376;6.126;2023-04-24T12:05:40;100427.00;;;15.20
15626;BMP180;7912;51.376;6.126;2023-04-24T12:08:08;100433.00;;;15.20
15626;BMP180;7912;51.376;6.126;2023-04-24T12:10:36;100459.00;;;15.00
15626;BMP180;7912;51.376;6.126;2023-04-24T12:13:25;100462.00;;;14.80
15626;BMP180;7912;51.376;6.126;2023-04-24T12:15:53;100452.00;;;14.70
15626;BMP180;7912;51.376;6.126;2023-04-24T12:18:24;100466.00;;;14.70
15626;BMP180;7912;51.376;6.126;2023-04-24T12:20:51;100455.00;;;14.70
15626;BMP180;7912;51.376;6.126;2023-04-24T12:23:49;100469.00;;;14.80
15626;BMP180;7912;51.376;6.126;2023-04-24T12:26:21;100469.00;;;14.80
15626;BMP180;7912;51.376;6.126;2023-04-24T12:28:50;100466.00;;;15.00
15626;BMP180;7912;51.376;6.126;2023-04-24T12:31:17;100455.00;;;15.10
15626;BMP180;7912;51.376;6.126;2023-04-24T12:33:45;100477.00;;;15.10
15626;BMP180;7912;51.376;6.126;2023-04-24T12:36:12;100476.00;;;15.10
15626;BMP180;7912;51.376;6.126;2023-04-24T12:38:44;100469.00;;;15.10
15626;BMP180;7912;51.376;6.126;2023-04-24T12:41:14;100462.00;;;15.00
15626;BMP180;7912;51.376;6.126;2023-04-24T12:43:53;100474.00;;;15.10
15626;BMP180;7912;51.376;6.126;2023-04-24T12:46:20;100474.00;;;15.30
15626;BMP180;7912;51.376;6.126;2023-04-24T12:48:48;100472.00;;;15.50
15626;BMP180;7912;51.376;6.126;2023-04-24T12:51:16;100476.00;;;15.80
15626;BMP180;7912;51.376;6.126;2023-04-24T12:53:43;100471.00;;;16.10
15626;BMP180;7912;51.376;6.126;2023-04-24T12:56:12;100478.00;;;16.50
15626;BMP180;7912;51.376;6.126;2023-04-24T12:58:39;100476.00;;;16.70
15626;BMP180;7912;51.376;6.126;2023-04-24T13:01:06;100480.00;;;16.90
15626;BMP180;7912;51.376;6.126;2023-04-24T13:03:34;100477.00;;;17.00
15626;BMP180;7912;51.376;6.126;2023-04-24T13:06:02;100481.00;;;17.10
15626;BMP180;7912;51.376;6.126;2023-04-24T13:08:32;100470.00;;;17.30
15626;BMP180;7912;51.376;6.126;2023-04-24T13:11:00;100478.00;;;17.20
15626;BMP180;7912;51.376;6.126;2023-04-24T13:13:27;100474.00;;;17.20
15626;BMP180;7912;51.376;6.126;2023-04-24T13:15:54;100483.00;;;17.10
15626;BMP180;7912;51.376;6.126;2023-04-24T13:18:22;100487.00;;;17.10
15626;BMP180;7912;51.376;6.126;2023-04-24T13:20:50;100485.00;;;17.10
15626;BMP180;7912;51.376;6.126;2023-04-24T13:23:18;100489.00;;;17.00
15626;BMP180;7912;51.376;6.126;2023-04-24T13:25:46;100499.00;;;17.00
15626;BMP180;7912;51.376;6.126;2023-04-24T13:28:14;100501.00;;;16.80
15626;BMP180;7912;51.376;6.126;2023-04-24T13:30:42;100493.00;;;16.70
15626;BMP180;7912;51.376;6.126;2023-04-24T13:33:15;100505.00;;;16.70
15626;BMP180;7912;51.376;6.126;2023-04-24T13:35:43;100490.00;;;16.70
15626;BMP180;7912;51.376;6.126;2023-04-24T13:38:13;100508.00;;;16.90
15626;BMP180;7912;51.376;6.126;2023-04-24T13:40:40;100497.00;;;17.00
15626;BMP180;7912;51.376;6.126;2023-04-24T13:43:08;100498.00;;;17.10
15626;BMP180;7912;51.376;6.126;2023-04-24T13:45:38;100490.00;;;17.30
15626;BMP180;7912;51.376;6.126;2023-04-24T13:48:05;100497.00;;;17.60
15626;BMP180;7912;51.376;6.126;2023-04-24T13:50:52;100495.00;;;17.80
15626;BMP180;7912;51.376;6.126;2023-04-24T13:53:19;100487.00;;;17.80
15626;BMP180;7912;51.376;6.126;2023-04-24T13:55:47;100512.00;;;17.80
15626;BMP180;7912;51.376;6.126;2023-04-24T13:58:15;100505.00;;;17.70
15626;BMP180;7912;51.376;6.126;2023-04-24T14:00:43;100519.00;;;17.70
15626;BMP180;7912;51.376;6.126;2023-04-24T14:03:10;100519.00;;;17.50
15626;BMP180;7912;51.376;6.126;2023-04-24T14:05:38;100495.00;;;17.30
15626;BMP180;7912;51.376;6.126;2023-04-24T14:08:06;100512.00;;;17.10
15626;BMP180;7912;51.376;6.126;2023-04-24T14:10:33;100523.00;;;16.90
15626;BMP180;7912;51.376;6.126;2023-04-24T14:13:01;100517.00;;;16.70
15626;BMP180;7912;51.376;6.126;2023-04-24T14:15:28;100516.00;;;16.60
15626;BMP180;7912;51.376;6.126;2023-04-24T14:17:56;100526.00;;;16.60
15626;BMP180;7912;51.376;6.126;2023-04-24T14:20:25;100510.00;;;16.70
15626;BMP180;7912;51.376;6.126;2023-04-24T14:22:53;100521.00;;;16.70
15626;BMP180;7912;51.376;6.126;2023-04-24T14:25:20;100511.00;;;16.80
15626;BMP180;7912;51.376;6.126;2023-04-24T14:27:49;100514.00;;;16.80
15626;BMP180;7912;51.376;6.126;2023-04-24T14:30:18;100531.00;;;16.70
15626;BMP180;7912;51.376;6.126;2023-04-24T14:33:06;100518.00;;;16.70
15626;BMP180;7912;51.376;6.126;2023-04-24T14:36:04;100522.00;;;16.70
15626;BMP180;7912;51.376;6.126;2023-04-24T14:38:32;100533.00;;;16.60
15626;BMP180;7912;51.376;6.126;2023-04-24T14:41:00;100528.00;;;16.50
15626;BMP180;7912;51.376;6.126;2023-04-24T14:43:31;100524.00;;;16.50
15626;BMP180;7912;51.376;6.126;2023-04-24T14:45:59;100526.00;;;16.70
15626;BMP180;7912;51.376;6.126;2023-04-24T14:48:27;100530.00;;;16.90
15626;BMP180;7912;51.376;6.126;2023-04-24T14:50:54;100521.00;;;17.10
15626;BMP180;7912;51.376;6.126;2023-04-24T14:53:21;100518.00;;;17.10
15626;BMP180;7912;51.376;6.126;2023-04-24T14:55:49;100523.00;;;17.20
15626;BMP180;7912;51.376;6.126;2023-04-24T14:58:16;100535.00;;;17.20
15626;BMP180;7912;51.376;6.126;2023-04-24T15:00:43;100535.00;;;17.30
15626;BMP180;7912;51.376;6.126;2023-04-24T15:03:11;100524.00;;;17.40
15626;BMP180;7912;51.376;6.126;2023-04-24T15:05:38;100544.00;;;17.50
15626;BMP180;7912;51.376;6.126;2023-04-24T15:08:06;100537.00;;;17.70
15626;BMP180;7912;51.376;6.126;2023-04-24T15:10:39;100542.00;;;18.00
15626;BMP180;7912;51.376;6.126;2023-04-24T15:13:07;100545.00;;;18.30